SDM601 ULLI-ULPB
Flight info
| Callsign | SDM601 |
|---|---|
| Flight time | 0h 34m |
| Altitude | 23000 |
| Route | RELNI1C RELNI T693 DISUP T821 BOBMU BOBMU2H |
| Aircraft | A320/M-SDE3FGHIRWY/LB1 |
Departure
| Time | 2026-05-04 06:48 |
|---|---|
| Airport | Pulkovo Airport (ULLI) |
Arrival
| Time | 2026-05-04 07:22 |
|---|---|
| Airport | Petrozavodsk Airport (ULPB) |
| Time | Latitude | Longitude | Altitude | Speed | Heading |
|---|---|---|---|---|---|
| 2026-05-04 06:35 | 59.79989 | 30.26433 | 81 ft | 0 kts | 106° |
| 2026-05-04 06:41 | 59.79982 | 30.26466 | 79 ft | 10 kts | 120° |
| 2026-05-04 06:41 | 59.79913 | 30.26477 | 81 ft | 10 kts | 197° |
| 2026-05-04 06:41 | 59.79852 | 30.26441 | 78 ft | 8 kts | 197° |
| 2026-05-04 06:42 | 59.79801 | 30.26411 | 80 ft | 7 kts | 197° |
| 2026-05-04 06:42 | 59.79723 | 30.26364 | 81 ft | 15 kts | 197° |
| 2026-05-04 06:42 | 59.79625 | 30.26307 | 78 ft | 14 kts | 196° |
| 2026-05-04 06:44 | 59.79845 | 30.24007 | 80 ft | 34 kts | 286° |
| 2026-05-04 06:44 | 59.79913 | 30.23549 | 77 ft | 35 kts | 286° |
| 2026-05-04 06:44 | 59.79982 | 30.23087 | 75 ft | 35 kts | 287° |
| 2026-05-04 06:45 | 59.80051 | 30.22625 | 72 ft | 35 kts | 286° |
| 2026-05-04 06:45 | 59.80115 | 30.22179 | 74 ft | 24 kts | 279° |
| 2026-05-04 06:45 | 59.80024 | 30.21928 | 72 ft | 23 kts | 197° |
| 2026-05-04 06:45 | 59.79963 | 30.22031 | 71 ft | 0 kts | 106° |
| 2026-05-04 06:46 | 59.79948 | 30.22137 | 72 ft | 34 kts | 106° |
| 2026-05-04 06:46 | 59.79809 | 30.23060 | 78 ft | 102 kts | 107° |
| 2026-05-04 06:46 | 59.79555 | 30.24772 | 79 ft | 154 kts | 107° |
| 2026-05-04 06:46 | 59.79229 | 30.26910 | 521 ft | 164 kts | 105° |
| 2026-05-04 06:48 | 59.76294 | 30.46491 | 4180 ft | 272 kts | 109° |
| 2026-05-04 06:48 | 59.75759 | 30.50128 | 5002 ft | 278 kts | 106° |
| 2026-05-04 06:49 | 59.75578 | 30.54009 | 5811 ft | 288 kts | 87° |
| 2026-05-04 06:50 | 59.82860 | 30.74891 | 10286 ft | 333 kts | 46° |
| 2026-05-04 06:51 | 59.84417 | 30.78527 | 10505 ft | 356 kts | 47° |
| 2026-05-04 06:51 | 59.86057 | 30.82373 | 10957 ft | 368 kts | 47° |
| 2026-05-04 06:51 | 59.87729 | 30.86308 | 11607 ft | 374 kts | 47° |
| 2026-05-04 06:51 | 59.89425 | 30.90315 | 12272 ft | 380 kts | 46° |
| 2026-05-04 06:52 | 59.91139 | 30.94376 | 12946 ft | 385 kts | 46° |
| 2026-05-04 06:52 | 59.92854 | 30.98436 | 13599 ft | 390 kts | 46° |
| 2026-05-04 06:52 | 59.94619 | 31.02616 | 14195 ft | 395 kts | 46° |
| 2026-05-04 06:52 | 59.96394 | 31.06829 | 14665 ft | 399 kts | 46° |
| 2026-05-04 06:53 | 59.98187 | 31.11091 | 14797 ft | 400 kts | 46° |
| 2026-05-04 06:53 | 59.99978 | 31.15359 | 14814 ft | 400 kts | 46° |
| 2026-05-04 06:53 | 60.01747 | 31.19579 | 14813 ft | 399 kts | 46° |
| 2026-05-04 06:53 | 60.03532 | 31.23842 | 14825 ft | 398 kts | 46° |
| 2026-05-04 06:54 | 60.05308 | 31.28096 | 14812 ft | 397 kts | 46° |
| 2026-05-04 06:54 | 60.07075 | 31.32341 | 14813 ft | 397 kts | 46° |
| 2026-05-04 06:54 | 60.08844 | 31.36614 | 14814 ft | 397 kts | 47° |
| 2026-05-04 06:54 | 60.10589 | 31.40835 | 14815 ft | 397 kts | 47° |
| 2026-05-04 06:55 | 60.12356 | 31.45089 | 14817 ft | 397 kts | 45° |
| 2026-05-04 06:55 | 60.14311 | 31.48951 | 14815 ft | 392 kts | 35° |
| 2026-05-04 06:55 | 60.16547 | 31.52067 | 14962 ft | 390 kts | 24° |
| 2026-05-04 06:55 | 60.18991 | 31.54398 | 15626 ft | 388 kts | 17° |
| 2026-05-04 06:56 | 60.21487 | 31.56528 | 16257 ft | 391 kts | 17° |
| 2026-05-04 06:57 | 60.39492 | 31.72095 | 20217 ft | 413 kts | 16° |
| 2026-05-04 06:58 | 60.42145 | 31.74393 | 20758 ft | 416 kts | 16° |
| 2026-05-04 06:58 | 60.44812 | 31.76703 | 21289 ft | 418 kts | 16° |
| 2026-05-04 06:58 | 60.47501 | 31.79036 | 21804 ft | 421 kts | 16° |
| 2026-05-04 06:58 | 60.50204 | 31.81394 | 22304 ft | 424 kts | 16° |
| 2026-05-04 06:59 | 60.52926 | 31.83776 | 22720 ft | 427 kts | 16° |
| 2026-05-04 06:59 | 60.55636 | 31.86153 | 22830 ft | 429 kts | 15° |
| 2026-05-04 06:59 | 60.58379 | 31.88561 | 22827 ft | 430 kts | 15° |
| 2026-05-04 06:59 | 60.61126 | 31.90984 | 22827 ft | 430 kts | 15° |
| 2026-05-04 07:01 | 60.80727 | 32.00278 | 22834 ft | 407 kts | 354° |
| 2026-05-04 07:01 | 60.83570 | 32.00492 | 22831 ft | 408 kts | 354° |
| 2026-05-04 07:02 | 60.85451 | 32.00641 | 22832 ft | 408 kts | 354° |
| 2026-05-04 07:02 | 60.88290 | 32.00864 | 22832 ft | 408 kts | 354° |
| 2026-05-04 07:02 | 60.91130 | 32.01094 | 22838 ft | 409 kts | 355° |
| 2026-05-04 07:02 | 60.93981 | 32.01912 | 22839 ft | 419 kts | 5° |
| 2026-05-04 07:03 | 60.96783 | 32.03815 | 22836 ft | 430 kts | 16° |
| 2026-05-04 07:03 | 60.99428 | 32.06845 | 22837 ft | 441 kts | 28° |
| 2026-05-04 07:03 | 61.01812 | 32.10961 | 22837 ft | 449 kts | 38° |
| 2026-05-04 07:03 | 61.04050 | 32.15478 | 22837 ft | 449 kts | 38° |
| 2026-05-04 07:04 | 61.06289 | 32.19992 | 22835 ft | 449 kts | 38° |
| 2026-05-04 07:04 | 61.08501 | 32.24455 | 22833 ft | 449 kts | 38° |
| 2026-05-04 07:04 | 61.10742 | 32.28972 | 22881 ft | 449 kts | 37° |
| 2026-05-04 07:04 | 61.12980 | 32.33488 | 22873 ft | 449 kts | 37° |
| 2026-05-04 07:05 | 61.15215 | 32.38008 | 22850 ft | 447 kts | 37° |
| 2026-05-04 07:05 | 61.17417 | 32.42483 | 22573 ft | 439 kts | 37° |
| 2026-05-04 07:05 | 61.19587 | 32.46905 | 22308 ft | 435 kts | 38° |
| 2026-05-04 07:05 | 61.21742 | 32.51302 | 22038 ft | 433 kts | 38° |
| 2026-05-04 07:06 | 61.26020 | 32.60060 | 21502 ft | 430 kts | 38° |
| 2026-05-04 07:06 | 61.28147 | 32.64408 | 21240 ft | 428 kts | 38° |
| 2026-05-04 07:06 | 61.30287 | 32.68694 | 20992 ft | 425 kts | 37° |
| 2026-05-04 07:07 | 61.32432 | 32.72927 | 20727 ft | 423 kts | 37° |
| 2026-05-04 07:08 | 61.47082 | 33.02190 | 18759 ft | 408 kts | 41° |
| 2026-05-04 07:09 | 61.48886 | 33.06696 | 18301 ft | 409 kts | 48° |
| 2026-05-04 07:09 | 61.50630 | 33.11414 | 17762 ft | 408 kts | 48° |
| 2026-05-04 07:09 | 61.52361 | 33.16108 | 17273 ft | 405 kts | 49° |
| 2026-05-04 07:09 | 61.54082 | 33.20780 | 16782 ft | 402 kts | 49° |
| 2026-05-04 07:10 | 61.55784 | 33.25414 | 16284 ft | 400 kts | 49° |
| 2026-05-04 07:10 | 61.57460 | 33.29979 | 15800 ft | 398 kts | 49° |
| 2026-05-04 07:12 | 61.69038 | 33.61834 | 12319 ft | 383 kts | 50° |
| 2026-05-04 07:12 | 61.70639 | 33.66277 | 11816 ft | 381 kts | 50° |
| 2026-05-04 07:12 | 61.72225 | 33.70684 | 11315 ft | 378 kts | 50° |
| 2026-05-04 07:12 | 61.73809 | 33.75093 | 10799 ft | 375 kts | 50° |
| 2026-05-04 07:13 | 61.75514 | 33.79201 | 10376 ft | 367 kts | 38° |
| 2026-05-04 07:13 | 61.77505 | 33.82361 | 10240 ft | 348 kts | 26° |
| 2026-05-04 07:13 | 61.79621 | 33.84560 | 10122 ft | 331 kts | 17° |
| 2026-05-04 07:14 | 61.87676 | 33.91784 | 9143 ft | 304 kts | 17° |
| 2026-05-04 07:14 | 61.89622 | 33.93523 | 8770 ft | 302 kts | 18° |
| 2026-05-04 07:15 | 61.91545 | 33.95245 | 8417 ft | 298 kts | 18° |
| 2026-05-04 07:15 | 61.93420 | 33.96930 | 7978 ft | 293 kts | 18° |
| 2026-05-04 07:15 | 61.95294 | 33.98619 | 7332 ft | 289 kts | 19° |
| 2026-05-04 07:15 | 61.97130 | 34.00278 | 6728 ft | 284 kts | 19° |
| 2026-05-04 07:16 | 61.98941 | 34.01912 | 6208 ft | 281 kts | 19° |
| 2026-05-04 07:16 | 62.00732 | 34.03528 | 5846 ft | 277 kts | 20° |
| 2026-05-04 07:16 | 62.02503 | 34.05138 | 5439 ft | 275 kts | 21° |
| 2026-05-04 07:16 | 62.04238 | 34.06717 | 5032 ft | 273 kts | 21° |
| 2026-05-04 07:17 | 62.05956 | 34.08433 | 4634 ft | 272 kts | 33° |
| 2026-05-04 07:17 | 62.07224 | 34.11368 | 4100 ft | 272 kts | 64° |
| 2026-05-04 07:17 | 62.07604 | 34.15172 | 3844 ft | 258 kts | 93° |
| 2026-05-04 07:17 | 62.07278 | 34.18922 | 3362 ft | 259 kts | 112° |
| 2026-05-04 07:18 | 62.06416 | 34.22149 | 3272 ft | 243 kts | 130° |
| 2026-05-04 07:18 | 62.05240 | 34.24502 | 3186 ft | 228 kts | 147° |
| 2026-05-04 07:18 | 62.03865 | 34.26011 | 3041 ft | 218 kts | 162° |
| 2026-05-04 07:18 | 62.02438 | 34.26656 | 2853 ft | 211 kts | 177° |
| 2026-05-04 07:19 | 62.00998 | 34.26505 | 2645 ft | 201 kts | 191° |
| 2026-05-04 07:19 | 61.99718 | 34.25659 | 2372 ft | 186 kts | 204° |
| 2026-05-04 07:19 | 61.98566 | 34.24608 | 2122 ft | 174 kts | 203° |
| 2026-05-04 07:19 | 61.97492 | 34.23632 | 1886 ft | 162 kts | 202° |
| 2026-05-04 07:20 | 61.96505 | 34.22731 | 1697 ft | 148 kts | 203° |
| 2026-05-04 07:20 | 61.95582 | 34.21873 | 1460 ft | 141 kts | 203° |
| 2026-05-04 07:20 | 61.94686 | 34.21048 | 1298 ft | 140 kts | 202° |
| 2026-05-04 07:20 | 61.93799 | 34.20260 | 1113 ft | 140 kts | 203° |
| 2026-05-04 07:22 | 61.88088 | 34.15087 | 171 ft | 49 kts | 203° |
| 2026-05-04 07:22 | 61.87898 | 34.15078 | 180 ft | 22 kts | 111° |
| 2026-05-04 07:23 | 61.87876 | 34.15176 | 183 ft | 0 kts | 116° |
| 2026-05-04 07:23 | 61.87868 | 34.15210 | 183 ft | 9 kts | 116° |
| 2026-05-04 07:23 | 61.87842 | 34.15328 | 183 ft | 8 kts | 114° |
| 2026-05-04 07:23 | 61.87809 | 34.15418 | 183 ft | 11 kts | 147° |
| 2026-05-04 07:24 | 61.87759 | 34.15419 | 183 ft | 0 kts | 194° |